Time;durP1;ratioP1;P1;durP2;ratioP2;P2;SDS_P1;SDS_P2;PMS_P1;PMS_P2;Temp;Humidity;BMP_temperature;BMP_pressure;BME280_temperature;BME280_humidity;BME280_pressure;Samples;Min_cycle;Max_cycle;Signal;HPM_P1;HPM_P2
2024/03/15 00:01:41;;;;;;;0.00;0.00;;;22.30;44.10;;;;;;4992643;28;20577;-55
2024/03/15 00:04:11;;;;;;;0.10;0.10;;;22.30;44.10;;;;;;4987948;28;20217;-56
2024/03/15 00:06:41;;;;;;;0.05;0.05;;;22.30;44.10;;;;;;4973315;28;20301;-52
2024/03/15 00:09:10;;;;;;;0.00;0.00;;;22.30;44.00;;;;;;4972753;28;20244;-52
2024/03/15 00:11:40;;;;;;;0.10;0.10;;;22.30;44.10;;;;;;4975110;28;20262;-58
2024/03/15 00:14:10;;;;;;;0.08;0.08;;;22.40;44.20;;;;;;4992011;28;20205;-53
2024/03/15 00:16:39;;;;;;;0.00;0.00;;;22.40;44.80;;;;;;4991621;28;20200;-54
2024/03/15 00:19:09;;;;;;;0.10;0.10;;;22.40;44.30;;;;;;4988021;28;20436;-56
2024/03/15 00:21:39;;;;;;;0.00;0.00;;;22.40;44.30;;;;;;4972838;28;20229;-54
2024/03/15 00:24:08;;;;;;;0.00;0.00;;;22.40;45.10;;;;;;4973956;28;20259;-54
2024/03/15 00:26:44;;;;;;;0.00;0.00;;;22.40;44.50;;;;;;4991991;28;20212;-49
2024/03/15 00:29:14;;;;;;;0.00;0.00;;;22.40;44.60;;;;;;4992594;28;20236;-54
2024/03/15 00:31:44;;;;;;;0.10;0.10;;;22.40;44.60;;;;;;4987696;28;20608;-57
2024/03/15 00:34:13;;;;;;;0.00;0.00;;;22.50;44.60;;;;;;4972517;28;20346;-54
2024/03/15 00:36:45;;;;;;;0.00;0.00;;;22.50;44.60;;;;;;4971650;28;20649;-51
2024/03/15 00:39:14;;;;;;;0.00;0.00;;;22.50;44.60;;;;;;4972551;28;20752;-54
2024/03/15 00:41:44;;;;;;;0.08;0.08;;;22.50;44.80;;;;;;4972593;28;20275;-50
2024/03/15 00:44:14;;;;;;;0.10;0.10;;;22.50;44.80;;;;;;4978023;28;20263;-47
2024/03/15 00:46:43;;;;;;;0.10;0.10;;;22.50;44.70;;;;;;4991413;28;20547;-51
2024/03/15 00:49:13;;;;;;;0.00;0.00;;;22.50;44.70;;;;;;4991409;28;20232;-47
2024/03/15 00:51:43;;;;;;;0.00;0.00;;;22.50;44.70;;;;;;4991395;28;20216;-53
2024/03/15 00:54:12;;;;;;;0.00;0.00;;;22.50;44.70;;;;;;4990953;28;20204;-52
2024/03/15 00:56:42;;;;;;;0.10;0.10;;;22.50;44.70;;;;;;4991839;28;20263;-52
2024/03/15 00:59:12;;;;;;;0.00;0.00;;;22.50;44.80;;;;;;4986784;28;20218;-53
2024/03/15 01:01:42;;;;;;;0.10;0.10;;;22.50;44.80;;;;;;4991090;28;20758;-55
2024/03/15 01:04:13;;;;;;;0.00;0.00;;;22.50;44.80;;;;;;4990838;28;20613;-50
2024/03/15 01:06:42;;;;;;;0.00;0.00;;;22.50;44.80;;;;;;4971838;28;20267;-54
2024/03/15 01:09:13;;;;;;;0.10;0.10;;;22.50;44.90;;;;;;4986351;28;20632;-50
2024/03/15 01:11:43;;;;;;;0.10;0.10;;;22.50;45.00;;;;;;4991165;28;20255;-55
2024/03/15 01:14:12;;;;;;;0.00;0.00;;;22.50;45.00;;;;;;4990037;28;20193;-51
2024/03/15 01:16:46;;;;;;;0.00;0.00;;;22.50;45.10;;;;;;4987166;28;20205;-51
2024/03/15 01:19:15;;;;;;;0.00;0.00;;;22.50;45.10;;;;;;4972334;28;20296;-56
2024/03/15 01:21:45;;;;;;;0.10;0.10;;;22.50;45.10;;;;;;4971216;28;20221;-50
2024/03/15 01:24:16;;;;;;;0.00;0.00;;;22.50;45.10;;;;;;4986136;28;20204;-47
2024/03/15 01:26:46;;;;;;;0.10;0.10;;;22.50;45.10;;;;;;4991914;28;20791;-62
2024/03/15 01:29:16;;;;;;;0.10;0.10;;;22.50;45.10;;;;;;4990459;28;20235;-52
2024/03/15 01:31:45;;;;;;;0.10;0.10;;;22.50;45.10;;;;;;4990773;28;20224;-49
2024/03/15 01:34:16;;;;;;;0.10;0.10;;;22.50;45.20;;;;;;4990031;28;20236;-50
2024/03/15 01:36:45;;;;;;;0.00;0.00;;;22.40;45.20;;;;;;4991098;28;20200;-55
2024/03/15 01:39:15;;;;;;;0.00;0.00;;;22.50;45.30;;;;;;4971482;28;20573;-54
2024/03/15 01:41:44;;;;;;;0.00;0.00;;;22.40;45.20;;;;;;4990492;28;20216;-55
2024/03/15 01:44:14;;;;;;;0.00;0.00;;;22.50;45.30;;;;;;4989878;28;20572;-48
2024/03/15 01:46:44;;;;;;;0.10;0.10;;;22.40;45.20;;;;;;4990684;28;20259;-54
2024/03/15 01:49:14;;;;;;;0.00;0.00;;;22.40;45.20;;;;;;4990886;28;20228;-53
2024/03/15 01:51:43;;;;;;;0.00;0.00;;;22.40;45.20;;;;;;4990033;28;20319;-56
2024/03/15 01:54:13;;;;;;;0.00;0.00;;;22.40;45.10;;;;;;4988772;28;20193;-54
2024/03/15 01:56:43;;;;;;;0.00;0.00;;;22.40;45.10;;;;;;4990699;28;20661;-55
2024/03/15 01:59:13;;;;;;;0.00;0.00;;;22.40;45.10;;;;;;4989844;28;20624;-54
2024/03/15 02:01:43;;;;;;;0.10;0.10;;;22.40;45.10;;;;;;4990287;28;20393;-51
2024/03/15 02:04:12;;;;;;;0.00;0.00;;;22.40;45.10;;;;;;4986384;28;20494;-55
2024/03/15 02:06:42;;;;;;;0.10;0.10;;;22.40;45.10;;;;;;4970942;28;20264;-53
2024/03/15 02:09:12;;;;;;;0.10;0.10;;;22.30;45.00;;;;;;4971764;28;20228;-50
2024/03/15 02:11:41;;;;;;;0.05;0.05;;;22.30;45.00;;;;;;4974819;28;20229;-52
2024/03/15 02:14:11;;;;;;;0.10;0.10;;;22.30;45.00;;;;;;4974755;28;20208;-50
2024/03/15 02:16:40;;;;;;;0.10;0.10;;;22.30;45.00;;;;;;4980132;28;20283;-58
2024/03/15 02:19:10;;;;;;;0.00;0.00;;;22.30;45.00;;;;;;4993782;28;20226;-51
2024/03/15 02:21:40;;;;;;;0.03;0.03;;;22.30;45.00;;;;;;4993971;28;20221;-55
2024/03/15 02:24:10;;;;;;;0.03;0.03;;;22.30;45.00;;;;;;4993289;28;20203;-53
2024/03/15 02:26:41;;;;;;;0.10;0.10;;;22.30;45.00;;;;;;4992640;28;20623;-52
2024/03/15 02:29:12;;;;;;;0.10;0.10;;;22.20;45.00;;;;;;4994841;28;20755;-56
2024/03/15 02:31:42;;;;;;;0.10;0.10;;;22.20;45.00;;;;;;4993625;28;20223;-55
2024/03/15 02:34:11;;;;;;;0.00;0.00;;;22.20;45.00;;;;;;4994624;28;20240;-56
2024/03/15 02:36:42;;;;;;;0.10;0.10;;;22.10;45.00;;;;;;4993820;28;20197;-46
2024/03/15 02:39:16;;;;;;;0.10;0.10;;;22.20;45.00;;;;;;4993709;28;20390;-55
2024/03/15 02:41:45;;;;;;;0.10;0.10;;;22.10;45.00;;;;;;4994667;28;20730;-49
2024/03/15 02:44:15;;;;;;;0.10;0.10;;;22.10;45.00;;;;;;4993616;28;20197;-49
2024/03/15 02:46:45;;;;;;;0.00;0.00;;;22.10;45.00;;;;;;4994158;28;20280;-50
2024/03/15 02:49:14;;;;;;;0.10;0.10;;;22.10;45.00;;;;;;4993642;28;20767;-50
2024/03/15 02:51:44;;;;;;;0.00;0.00;;;22.00;45.00;;;;;;4993704;28;20700;-55
2024/03/15 02:54:14;;;;;;;0.00;0.00;;;22.00;45.00;;;;;;4991174;28;20239;-46
2024/03/15 02:56:43;;;;;;;0.00;0.00;;;22.00;45.00;;;;;;4989517;28;20341;-54
2024/03/15 02:59:14;;;;;;;0.10;0.10;;;22.00;45.00;;;;;;4974134;28;20501;-57
2024/03/15 03:01:46;;;;;;;0.10;0.10;;;22.00;45.00;;;;;;4979898;28;20216;-49
2024/03/15 03:04:15;;;;;;;0.00;0.00;;;21.90;45.00;;;;;;4993890;28;20259;-53
2024/03/15 03:06:45;;;;;;;0.10;0.10;;;21.90;45.00;;;;;;4991834;28;20205;-48
2024/03/15 03:09:17;;;;;;;0.10;0.10;;;21.90;45.00;;;;;;4992546;28;20231;-47
2024/03/15 03:11:46;;;;;;;0.00;0.00;;;21.90;45.00;;;;;;4992973;28;20311;-45
2024/03/15 03:14:16;;;;;;;0.00;0.00;;;21.90;45.30;;;;;;4993551;28;20200;-54
2024/03/15 03:16:45;;;;;;;0.00;0.00;;;21.90;45.50;;;;;;4989449;28;20205;-54
2024/03/15 03:19:17;;;;;;;0.10;0.10;;;21.90;45.40;;;;;;4990192;28;20272;-47
2024/03/15 03:21:47;;;;;;;0.00;0.00;;;21.90;45.30;;;;;;4988649;28;20217;-50
2024/03/15 03:24:17;;;;;;;0.00;0.00;;;21.80;45.20;;;;;;4993807;28;20201;-46
2024/03/15 03:26:47;;;;;;;0.05;0.05;;;21.80;45.20;;;;;;4993581;28;20252;-46
2024/03/15 03:29:17;;;;;;;0.10;0.10;;;21.80;45.20;;;;;;4992826;28;20236;-49
2024/03/15 03:31:47;;;;;;;0.05;0.05;;;21.80;45.20;;;;;;4994113;28;20620;-48
2024/03/15 03:34:17;;;;;;;0.10;0.10;;;21.80;45.20;;;;;;4992780;28;20284;-51
2024/03/15 03:36:46;;;;;;;0.10;0.10;;;21.80;45.20;;;;;;4988109;28;20201;-50
2024/03/15 03:39:17;;;;;;;0.10;0.10;;;21.80;45.20;;;;;;4972897;28;20205;-48
2024/03/15 03:41:47;;;;;;;0.10;0.10;;;21.80;45.20;;;;;;4972116;28;20221;-48
2024/03/15 03:44:18;;;;;;;0.10;0.10;;;21.70;45.20;;;;;;4972296;28;20202;-53
2024/03/15 03:46:47;;;;;;;0.10;0.10;;;21.70;45.20;;;;;;4973181;28;20209;-46
2024/03/15 03:49:17;;;;;;;0.10;0.10;;;21.70;45.20;;;;;;4973217;28;20225;-51
2024/03/15 03:51:47;;;;;;;0.00;0.00;;;21.70;45.20;;;;;;4986729;28;20267;-52
2024/03/15 03:54:17;;;;;;;0.00;0.00;;;21.60;45.10;;;;;;4992052;28;20212;-52
2024/03/15 03:56:47;;;;;;;0.10;0.10;;;21.60;45.10;;;;;;4992068;28;20204;-53
2024/03/15 03:59:17;;;;;;;0.10;0.10;;;21.60;45.10;;;;;;4992962;28;20220;-55
2024/03/15 04:01:47;;;;;;;0.10;0.10;;;21.60;45.10;;;;;;4992573;28;20637;-52
2024/03/15 04:04:16;;;;;;;0.10;0.10;;;21.60;45.10;;;;;;4986870;28;20217;-51
2024/03/15 04:06:49;;;;;;;0.10;0.10;;;21.60;45.10;;;;;;4973201;28;20258;-54
2024/03/15 04:09:19;;;;;;;0.00;0.00;;;21.50;45.10;;;;;;4983798;28;20224;-53
2024/03/15 04:11:49;;;;;;;0.00;0.00;;;21.50;45.10;;;;;;4992134;28;20637;-55
2024/03/15 04:14:20;;;;;;;0.03;0.03;;;21.50;45.10;;;;;;4991019;28;20307;-51
2024/03/15 04:16:49;;;;;;;0.10;0.10;;;21.50;45.10;;;;;;4991416;28;20213;-54
2024/03/15 04:19:20;;;;;;;0.00;0.00;;;21.40;45.00;;;;;;4992236;28;20205;-51
2024/03/15 04:21:51;;;;;;;0.00;0.00;;;21.40;45.00;;;;;;4992108;28;20311;-50
2024/03/15 04:24:22;;;;;;;0.00;0.00;;;21.40;45.00;;;;;;4991470;28;20255;-53
2024/03/15 04:26:52;;;;;;;0.00;0.00;;;21.40;45.00;;;;;;4991410;28;20731;-54
2024/03/15 04:29:22;;;;;;;0.00;0.00;;;21.40;45.00;;;;;;4987512;28;20605;-51
2024/03/15 04:31:51;;;;;;;0.00;0.00;;;21.40;45.00;;;;;;4996039;23;20281;-53
2024/03/15 04:34:21;;;;;;;0.00;0.00;;;21.40;45.00;;;;;;4990977;28;20219;-55
2024/03/15 04:36:51;;;;;;;0.00;0.00;;;21.30;45.00;;;;;;4991490;28;20201;-49
2024/03/15 04:39:22;;;;;;;0.10;0.10;;;21.30;44.90;;;;;;4990903;28;20205;-51
2024/03/15 04:41:51;;;;;;;0.00;0.00;;;21.30;45.00;;;;;;4991586;28;20221;-54
2024/03/15 04:44:21;;;;;;;0.00;0.00;;;21.30;45.00;;;;;;4991368;28;20205;-54
2024/03/15 04:46:50;;;;;;;0.03;0.03;;;21.30;45.00;;;;;;4991784;28;20205;-49
2024/03/15 04:49:20;;;;;;;0.05;0.05;;;21.20;44.90;;;;;;4990365;28;20233;-49
2024/03/15 04:51:51;;;;;;;0.00;0.00;;;21.20;45.00;;;;;;4990495;28;20248;-55
2024/03/15 04:54:21;;;;;;;0.10;0.10;;;21.20;44.90;;;;;;4989921;28;20205;-50
2024/03/15 04:56:51;;;;;;;0.00;0.00;;;21.20;44.90;;;;;;4991149;28;20204;-49
2024/03/15 04:59:20;;;;;;;0.00;0.00;;;21.20;45.00;;;;;;4989322;28;20212;-48
2024/03/15 05:01:50;;;;;;;0.00;0.00;;;21.20;45.00;;;;;;5006737;28;20726;-48
2024/03/15 05:04:19;;;;;;;0.00;0.00;;;21.10;44.90;;;;;;4990495;28;20212;-49
2024/03/15 05:06:49;;;;;;;0.00;0.00;;;21.10;44.90;;;;;;4990928;28;20197;-49
2024/03/15 05:09:22;;;;;;;0.00;0.00;;;21.10;44.90;;;;;;4985699;28;20681;-51
2024/03/15 05:11:51;;;;;;;0.10;0.10;;;21.10;44.90;;;;;;4971191;28;20308;-51
2024/03/15 05:14:21;;;;;;;0.00;0.00;;;21.10;44.90;;;;;;4971496;28;20814;-51
2024/03/15 05:16:55;;;;;;;0.05;0.05;;;21.10;44.90;;;;;;4977444;28;20200;-52
2024/03/15 05:19:26;;;;;;;0.00;0.00;;;21.10;44.90;;;;;;5006760;28;20204;-49
2024/03/15 05:21:55;;;;;;;0.00;0.00;;;21.00;44.90;;;;;;5007026;28;20231;-47
2024/03/15 05:24:25;;;;;;;0.10;0.10;;;21.00;44.90;;;;;;4990606;28;20212;-50
2024/03/15 05:26:55;;;;;;;0.00;0.00;;;21.00;44.90;;;;;;5007095;28;20243;-48
2024/03/15 05:29:24;;;;;;;0.00;0.00;;;21.00;44.90;;;;;;5006135;28;20205;-50
2024/03/15 05:31:54;;;;;;;0.00;0.00;;;21.00;44.80;;;;;;5006226;28;20228;-48
2024/03/15 05:34:24;;;;;;;0.00;0.00;;;21.00;44.90;;;;;;5006545;28;20211;-49
2024/03/15 05:36:53;;;;;;;0.00;0.00;;;21.00;44.80;;;;;;5002340;28;20232;-52
2024/03/15 05:39:23;;;;;;;0.00;0.00;;;20.90;44.80;;;;;;4970624;28;20200;-51
2024/03/15 05:41:52;;;;;;;0.03;0.03;;;20.90;44.80;;;;;;4971121;28;20229;-52
2024/03/15 05:44:22;;;;;;;0.05;0.05;;;20.90;44.80;;;;;;4972161;28;20606;-48
2024/03/15 05:46:52;;;;;;;0.10;0.10;;;20.90;44.80;;;;;;4975476;28;20212;-51
2024/03/15 05:49:22;;;;;;;0.10;0.10;;;20.90;44.80;;;;;;4981822;28;20852;-50
2024/03/15 05:51:51;;;;;;;0.10;0.10;;;20.90;44.80;;;;;;4994417;28;20308;-52
2024/03/15 05:54:21;;;;;;;0.10;0.10;;;20.90;44.90;;;;;;4995066;28;20612;-50
2024/03/15 05:56:50;;;;;;;0.10;0.10;;;20.90;44.90;;;;;;5007091;28;20196;-51
2024/03/15 05:59:20;;;;;;;0.10;0.10;;;20.90;44.90;;;;;;5011327;28;20197;-51
2024/03/15 06:01:50;;;;;;;0.00;0.00;;;20.80;44.80;;;;;;5010547;28;20271;-48
2024/03/15 06:04:19;;;;;;;0.05;0.05;;;20.80;44.90;;;;;;4994273;28;20204;-53
2024/03/15 06:06:49;;;;;;;0.08;0.08;;;20.80;44.80;;;;;;4994655;28;20201;-52
2024/03/15 06:09:19;;;;;;;0.00;0.00;;;20.80;44.90;;;;;;4994369;28;20207;-51
2024/03/15 06:11:49;;;;;;;0.00;0.00;;;20.70;44.80;;;;;;4994527;28;20580;-51
2024/03/15 06:14:18;;;;;;;0.05;0.05;;;20.70;44.80;;;;;;4994720;28;20205;-50
2024/03/15 06:16:48;;;;;;;0.10;0.10;;;20.70;44.80;;;;;;4994165;28;20263;-53
2024/03/15 06:19:17;;;;;;;0.00;0.00;;;20.70;44.80;;;;;;5010638;28;20676;-47
2024/03/15 06:21:48;;;;;;;0.10;0.10;;;20.70;44.80;;;;;;5010710;28;20274;-51
2024/03/15 06:24:19;;;;;;;0.05;0.05;;;20.70;44.80;;;;;;5006893;28;20300;-49
2024/03/15 06:26:49;;;;;;;0.10;0.10;;;20.70;44.70;;;;;;5008943;28;20209;-50
2024/03/15 06:29:20;;;;;;;0.00;0.00;;;20.70;44.70;;;;;;5010187;28;20196;-52
2024/03/15 06:31:50;;;;;;;0.10;0.10;;;20.70;44.70;;;;;;5020121;23;20279;-50
2024/03/15 06:34:23;;;;;;;0.00;0.00;;;20.70;44.70;;;;;;5006746;28;20205;-53
2024/03/15 06:36:54;;;;;;;0.00;0.00;;;20.60;44.70;;;;;;4990091;28;20681;-53
2024/03/15 06:39:40;;;;;;;0.10;0.10;;;20.60;44.70;;;;;;4990286;28;20197;-49
2024/03/15 06:42:20;;;;;;;0.10;0.10;;;20.60;44.70;;;;;;5011749;28;20280;-57
2024/03/15 06:45:01;;;;;;;0.10;0.10;;;20.60;44.70;;;;;;4999342;28;20251;-52
2024/03/15 06:47:32;;;;;;;0.00;0.00;;;20.50;44.60;;;;;;4999610;28;20200;-54
2024/03/15 06:50:20;;;;;;;0.00;0.00;;;20.60;44.70;;;;;;4997755;28;20307;-50
2024/03/15 06:52:48;;;;;;;0.00;0.00;;;20.50;44.70;;;;;;5000121;28;20216;-50
2024/03/15 06:55:17;;;;;;;0.00;0.00;;;20.50;44.60;;;;;;4996322;28;20205;-47
2024/03/15 06:57:48;;;;;;;0.10;0.10;;;20.50;44.70;;;;;;4996011;28;20272;-47
2024/03/15 07:00:18;;;;;;;0.03;0.03;;;20.50;44.70;;;;;;5013507;28;20627;-49
2024/03/15 07:02:50;;;;;;;0.08;0.08;;;20.40;44.70;;;;;;5012618;28;20212;-49
2024/03/15 07:05:23;;;;;;;0.10;0.10;;;20.40;44.60;;;;;;5009820;28;20189;-50
2024/03/15 07:07:53;;;;;;;0.00;0.00;;;20.40;44.60;;;;;;4997367;28;20559;-46
2024/03/15 07:10:23;;;;;;;0.08;0.08;;;20.40;44.60;;;;;;4996566;28;20221;-46
2024/03/15 07:12:52;;;;;;;0.00;0.00;;;20.40;44.60;;;;;;4996306;28;20221;-45
2024/03/15 07:15:22;;;;;;;0.08;0.08;;;20.40;44.60;;;;;;4997022;28;20656;-49
2024/03/15 07:17:51;;;;;;;0.00;0.00;;;20.40;44.60;;;;;;4997029;28;20660;-49
2024/03/15 07:20:21;;;;;;;0.10;0.10;;;20.40;44.60;;;;;;4996818;28;20204;-48
2024/03/15 07:22:52;;;;;;;0.10;0.10;;;20.40;44.60;;;;;;4996868;28;20216;-47
2024/03/15 07:25:22;;;;;;;0.00;0.00;;;20.40;44.60;;;;;;4996866;28;20236;-51
2024/03/15 07:27:51;;;;;;;0.10;0.10;;;20.40;44.60;;;;;;4996261;28;20594;-48
2024/03/15 07:30:21;;;;;;;0.00;0.00;;;20.30;44.50;;;;;;4996467;28;20224;-48
2024/03/15 07:32:51;;;;;;;0.00;0.00;;;20.30;44.50;;;;;;4996265;28;20247;-52
2024/03/15 07:35:21;;;;;;;0.10;0.10;;;20.30;44.60;;;;;;4997064;28;20251;-50
2024/03/15 07:37:53;;;;;;;0.10;0.10;;;20.30;44.60;;;;;;4996767;28;20196;-49
2024/03/15 07:40:22;;;;;;;0.00;0.00;;;20.30;44.60;;;;;;4996442;28;20227;-52
2024/03/15 07:42:53;;;;;;;0.10;0.10;;;20.30;44.60;;;;;;4995745;28;20257;-51
2024/03/15 07:45:22;;;;;;;0.10;0.10;;;20.30;44.60;;;;;;4996487;28;20204;-49
2024/03/15 07:47:52;;;;;;;0.00;0.00;;;20.20;44.60;;;;;;4995972;28;20197;-48
2024/03/15 07:50:22;;;;;;;0.00;0.00;;;20.20;44.60;;;;;;4996143;28;20228;-54
2024/03/15 07:52:51;;;;;;;0.00;0.00;;;20.20;44.60;;;;;;4996170;28;20220;-48
2024/03/15 07:55:21;;;;;;;0.00;0.00;;;20.20;44.60;;;;;;5004405;28;20676;-52
2024/03/15 07:57:51;;;;;;;0.10;0.10;;;20.20;44.50;;;;;;4991578;28;20272;-47
2024/03/15 08:00:21;;;;;;;0.00;0.00;;;20.20;44.50;;;;;;4976389;28;20564;-51
2024/03/15 08:02:50;;;;;;;0.00;0.00;;;20.20;44.50;;;;;;4976453;28;20304;-47
2024/03/15 08:05:23;;;;;;;0.00;0.00;;;20.20;44.50;;;;;;4976498;28;20267;-48
2024/03/15 08:07:53;;;;;;;0.10;0.10;;;20.20;44.50;;;;;;4976429;28;20201;-49
2024/03/15 08:10:23;;;;;;;0.00;0.00;;;20.20;44.50;;;;;;4976284;28;20222;-49
2024/03/15 08:12:54;;;;;;;0.00;0.00;;;20.20;44.50;;;;;;4975877;28;20222;-47
2024/03/15 08:15:26;;;;;;;0.00;0.00;;;20.10;44.40;;;;;;4976675;28;20664;-47
2024/03/15 08:17:56;;;;;;;0.03;0.03;;;20.10;44.50;;;;;;4976507;28;20673;-52
2024/03/15 08:20:26;;;;;;;0.00;0.00;;;20.10;44.50;;;;;;4976519;28;20224;-49
2024/03/15 08:22:56;;;;;;;0.00;0.00;;;20.10;44.50;;;;;;4976465;28;20224;-48
2024/03/15 08:25:26;;;;;;;0.00;0.00;;;20.10;44.50;;;;;;4993152;28;20275;-50
2024/03/15 08:27:56;;;;;;;0.00;0.00;;;20.10;44.50;;;;;;4995194;28;20197;-47
2024/03/15 08:30:25;;;;;;;0.10;0.10;;;20.00;44.50;;;;;;4996090;28;20221;-51
2024/03/15 08:32:55;;;;;;;0.00;0.00;;;20.00;44.50;;;;;;4995622;28;20213;-47
2024/03/15 08:35:26;;;;;;;0.00;0.00;;;20.00;44.60;;;;;;4995496;28;20589;-47
2024/03/15 08:37:57;;;;;;;0.00;0.00;;;20.00;44.50;;;;;;4995360;28;20193;-46
2024/03/15 08:40:26;;;;;;;0.00;0.00;;;20.00;44.60;;;;;;4995466;28;20212;-51
2024/03/15 08:42:56;;;;;;;0.00;0.00;;;20.00;44.50;;;;;;4994845;28;20212;-47
2024/03/15 08:45:25;;;;;;;0.00;0.00;;;20.00;44.50;;;;;;4995110;28;20653;-52
2024/03/15 08:47:55;;;;;;;0.10;0.10;;;19.90;44.40;;;;;;4995455;28;20202;-52
2024/03/15 08:50:26;;;;;;;0.00;0.00;;;20.00;44.50;;;;;;5011404;28;20197;-48
2024/03/15 08:52:56;;;;;;;0.00;0.00;;;19.90;44.40;;;;;;4995091;28;20212;-49
2024/03/15 08:55:25;;;;;;;0.10;0.10;;;20.00;44.50;;;;;;5010697;28;20259;-51
2024/03/15 08:57:56;;;;;;;0.00;0.00;;;20.00;44.50;;;;;;4992545;28;20193;-49
2024/03/15 09:00:25;;;;;;;0.00;0.00;;;19.90;44.40;;;;;;5010850;28;20197;-50
2024/03/15 09:02:55;;;;;;;0.00;0.00;;;19.90;44.50;;;;;;5006710;28;20217;-51
2024/03/15 09:05:25;;;;;;;0.00;0.00;;;19.90;44.50;;;;;;4991305;28;20636;-48
2024/03/15 09:07:54;;;;;;;0.00;0.00;;;19.90;44.50;;;;;;4990821;28;20212;-49
2024/03/15 09:10:24;;;;;;;0.05;0.05;;;19.90;44.50;;;;;;4989736;28;20213;-49
2024/03/15 09:12:54;;;;;;;0.08;0.08;;;19.90;44.50;;;;;;5006147;28;20700;-51
2024/03/15 09:15:24;;;;;;;0.00;0.00;;;19.90;44.60;;;;;;5006969;28;20208;-53
2024/03/15 09:17:58;;;;;;;0.00;0.00;;;19.80;44.60;;;;;;5005983;28;20622;-48
2024/03/15 09:20:35;;;;;;;0.10;0.10;;;19.90;44.70;;;;;;4990647;28;20206;-51
2024/03/15 09:23:05;;;;;;;0.10;0.10;;;19.90;44.70;;;;;;4991628;28;20208;-51
2024/03/15 09:25:35;;;;;;;0.10;0.10;;;19.80;44.70;;;;;;5000349;28;20211;-53
2024/03/15 09:28:07;;;;;;;0.08;0.08;;;19.80;44.80;;;;;;4986581;28;20310;-54
2024/03/15 09:30:46;;;;;;;0.10;0.10;;;19.80;44.80;;;;;;4987357;28;20213;-55
2024/03/15 09:33:15;;;;;;;0.10;0.10;;;19.80;44.90;;;;;;4993698;28;20210;-46
2024/03/15 09:35:46;;;;;;;0.10;0.10;;;19.80;44.90;;;;;;4987325;28;20201;-52
2024/03/15 09:38:16;;;;;;;0.10;0.10;;;19.90;45.00;;;;;;4972118;28;20512;-47
2024/03/15 09:40:45;;;;;;;0.10;0.10;;;19.80;45.00;;;;;;4989395;28;20621;-45
2024/03/15 09:43:15;;;;;;;0.00;0.00;;;19.80;45.10;;;;;;4986445;28;20206;-45
2024/03/15 09:45:45;;;;;;;0.10;0.10;;;19.80;45.10;;;;;;4982425;28;20292;-54
2024/03/15 09:48:15;;;;;;;0.10;0.10;;;19.80;45.20;;;;;;5000410;28;20283;-51
2024/03/15 09:50:45;;;;;;;0.00;0.00;;;19.80;45.20;;;;;;4990007;28;20332;-47
2024/03/15 09:53:14;;;;;;;0.10;0.10;;;19.80;45.30;;;;;;4990705;28;20204;-46
2024/03/15 09:55:44;;;;;;;0.10;0.10;;;19.80;45.40;;;;;;4989815;28;20208;-49
2024/03/15 09:58:13;;;;;;;0.10;0.10;;;19.80;45.50;;;;;;4991580;28;20204;-48
2024/03/15 10:00:43;;;;;;;0.00;0.00;;;19.80;45.60;;;;;;4990312;28;20197;-48
2024/03/15 10:03:13;;;;;;;0.00;0.00;;;19.80;45.60;;;;;;4990077;28;20661;-45
2024/03/15 10:05:42;;;;;;;0.10;0.10;;;19.70;45.50;;;;;;5006843;28;20201;-49
2024/03/15 10:08:13;;;;;;;0.10;0.10;;;19.70;45.60;;;;;;5005557;28;20208;-49
2024/03/15 10:10:44;;;;;;;0.00;0.00;;;19.80;45.70;;;;;;4990442;28;20658;-46
2024/03/15 10:13:14;;;;;;;0.03;0.03;;;19.80;45.80;;;;;;4989137;28;20242;-50
2024/03/15 10:15:46;;;;;;;0.00;0.00;;;19.80;46.00;;;;;;4990528;28;20263;-53
2024/03/15 10:18:16;;;;;;;0.10;0.10;;;19.70;46.00;;;;;;4989386;28;20258;-48
2024/03/15 10:20:46;;;;;;;0.00;0.00;;;19.80;46.00;;;;;;4989952;28;20248;-51
2024/03/15 10:23:16;;;;;;;0.10;0.10;;;19.80;46.00;;;;;;5005734;28;20212;-51
2024/03/15 10:25:46;;;;;;;0.00;0.00;;;19.80;46.00;;;;;;5005082;28;20615;-46
2024/03/15 10:28:19;;;;;;;0.10;0.10;;;19.70;45.90;;;;;;4990753;28;20294;-49
2024/03/15 10:30:49;;;;;;;0.00;0.00;;;19.70;45.90;;;;;;4992107;28;20295;-49
2024/03/15 10:33:19;;;;;;;0.03;0.03;;;19.70;45.80;;;;;;4993950;28;20292;-46
2024/03/15 10:35:49;;;;;;;0.00;0.00;;;19.70;45.80;;;;;;4992489;28;20205;-49
2024/03/15 10:38:18;;;;;;;0.10;0.10;;;19.70;45.80;;;;;;4993690;28;20251;-48
2024/03/15 10:40:48;;;;;;;0.10;0.10;;;19.70;45.90;;;;;;4993437;28;20205;-49
2024/03/15 10:43:17;;;;;;;0.00;0.00;;;19.60;45.80;;;;;;4994094;28;20267;-49
2024/03/15 10:45:48;;;;;;;0.10;0.10;;;19.60;45.70;;;;;;4994011;28;20224;-48
2024/03/15 10:48:18;;;;;;;0.00;0.00;;;19.60;45.70;;;;;;4992695;28;20204;-51
2024/03/15 10:50:47;;;;;;;0.10;0.10;;;19.60;45.70;;;;;;4993265;28;20201;-49
2024/03/15 10:53:19;;;;;;;0.00;0.00;;;19.60;45.70;;;;;;4992565;28;20201;-45
2024/03/15 10:55:49;;;;;;;0.10;0.10;;;19.60;45.70;;;;;;4993492;28;20378;-50
2024/03/15 10:58:19;;;;;;;0.00;0.00;;;19.60;45.70;;;;;;5009068;28;20722;-49
2024/03/15 11:00:49;;;;;;;0.10;0.10;;;19.60;45.60;;;;;;4993353;28;20208;-45
2024/03/15 11:03:18;;;;;;;0.10;0.10;;;19.60;45.70;;;;;;4995811;28;20286;-52
2024/03/15 11:05:49;;;;;;;0.10;0.10;;;19.60;45.60;;;;;;5008874;28;20204;-52
2024/03/15 11:08:19;;;;;;;0.00;0.00;;;19.50;45.60;;;;;;4992876;28;20205;-53
2024/03/15 11:10:55;;;;;;;0.08;0.08;;;19.50;45.50;;;;;;4992585;28;20200;-53
2024/03/15 11:13:25;;;;;;;0.10;0.10;;;19.50;45.50;;;;;;4994726;28;20215;-49
2024/03/15 11:15:55;;;;;;;0.10;0.10;;;19.50;45.50;;;;;;4996358;28;20195;-54
2024/03/15 11:18:25;;;;;;;0.00;0.00;;;19.50;45.50;;;;;;5009688;28;20243;-50
2024/03/15 11:20:55;;;;;;;0.10;0.10;;;19.50;45.50;;;;;;5012098;28;20223;-48
2024/03/15 11:23:25;;;;;;;0.10;0.10;;;19.50;45.50;;;;;;5009172;28;20271;-45
2024/03/15 11:25:57;;;;;;;0.03;0.03;;;19.40;45.50;;;;;;5011281;28;20259;-50
2024/03/15 11:28:27;;;;;;;0.08;0.08;;;19.50;46.10;;;;;;5010924;28;20240;-47
2024/03/15 11:30:57;;;;;;;0.00;0.00;;;19.40;45.50;;;;;;5024227;23;20723;-47
2024/03/15 11:33:27;;;;;;;0.00;0.00;;;19.40;45.40;;;;;;5015974;28;20219;-50
2024/03/15 11:35:57;;;;;;;0.10;0.10;;;19.40;45.40;;;;;;5013561;28;20208;-47
2024/03/15 11:38:26;;;;;;;0.00;0.00;;;19.40;45.40;;;;;;5015757;28;20192;-48
2024/03/15 11:40:56;;;;;;;0.00;0.00;;;19.40;45.40;;;;;;5013162;28;20222;-46
2024/03/15 11:43:25;;;;;;;0.00;0.00;;;19.40;45.40;;;;;;5014712;28;20200;-46
2024/03/15 11:45:55;;;;;;;0.10;0.10;;;19.30;45.30;;;;;;5013062;28;20434;-49
2024/03/15 11:48:25;;;;;;;0.00;0.00;;;19.30;45.30;;;;;;5015423;28;20660;-50
2024/03/15 11:50:55;;;;;;;0.10;0.10;;;19.30;45.50;;;;;;5012971;28;20243;-48
2024/03/15 11:53:24;;;;;;;0.05;0.05;;;19.30;45.30;;;;;;5015220;28;20227;-46
2024/03/15 11:55:54;;;;;;;0.00;0.00;;;19.30;45.30;;;;;;5015898;28;20257;-46
2024/03/15 11:58:22;;;;;;;0.00;0.00;;;19.30;45.30;;;;;;5015712;28;20246;-47
2024/03/15 12:00:52;;;;;;;0.00;0.00;;;19.30;45.30;;;;;;5015271;28;20192;-47
2024/03/15 12:03:22;;;;;;;0.00;0.00;;;19.30;45.30;;;;;;5015688;28;20258;-48
2024/03/15 12:05:51;;;;;;;0.10;0.10;;;19.20;45.20;;;;;;5015856;28;20192;-47
2024/03/15 12:08:22;;;;;;;0.10;0.10;;;19.30;45.30;;;;;;5015599;28;20204;-48
2024/03/15 12:10:51;;;;;;;0.08;0.08;;;19.30;45.20;;;;;;5015431;28;20634;-47
2024/03/15 12:13:21;;;;;;;0.00;0.00;;;19.30;45.30;;;;;;5015342;28;20255;-49
2024/03/15 12:15:51;;;;;;;0.00;0.00;;;19.20;45.20;;;;;;5015486;28;20567;-50
2024/03/15 12:18:20;;;;;;;0.10;0.10;;;19.20;45.10;;;;;;5015547;28;20289;-48
2024/03/15 12:20:50;;;;;;;0.10;0.10;;;19.20;45.20;;;;;;5015495;28;20196;-48
2024/03/15 12:23:20;;;;;;;0.00;0.00;;;19.20;45.20;;;;;;5015028;28;20279;-49
2024/03/15 12:25:50;;;;;;;0.00;0.00;;;19.10;45.10;;;;;;5014881;28;20211;-48
2024/03/15 12:28:19;;;;;;;0.10;0.10;;;19.10;45.10;;;;;;5014663;28;20660;-50
2024/03/15 12:30:49;;;;;;;0.10;0.10;;;19.10;45.10;;;;;;5023596;23;20454;-51
2024/03/15 12:33:18;;;;;;;0.10;0.10;;;19.10;45.10;;;;;;4994448;28;20220;-53
2024/03/15 12:35:49;;;;;;;0.03;0.03;;;19.10;45.10;;;;;;4995654;28;20200;-51
2024/03/15 12:38:20;;;;;;;0.08;0.08;;;19.10;45.20;;;;;;4995633;28;20193;-46
2024/03/15 12:40:52;;;;;;;0.08;0.08;;;19.10;45.10;;;;;;4994709;28;20192;-46
2024/03/15 12:43:21;;;;;;;0.00;0.00;;;19.10;45.10;;;;;;4995871;28;20228;-50
2024/03/15 12:45:51;;;;;;;0.00;0.00;;;19.10;45.10;;;;;;4995172;28;20578;-50
2024/03/15 12:48:20;;;;;;;0.08;0.08;;;19.10;45.10;;;;;;4995445;28;20200;-48
2024/03/15 12:50:50;;;;;;;0.00;0.00;;;19.00;45.10;;;;;;4994942;28;20201;-50
2024/03/15 12:53:20;;;;;;;0.00;0.00;;;19.00;45.10;;;;;;4991459;28;20224;-50
2024/03/15 12:55:49;;;;;;;0.10;0.10;;;19.00;45.00;;;;;;4990572;28;20621;-45
2024/03/15 12:58:19;;;;;;;0.00;0.00;;;19.00;45.00;;;;;;4995249;28;20197;-44
2024/03/15 13:00:49;;;;;;;0.10;0.10;;;19.00;45.00;;;;;;4995013;28;20193;-46
2024/03/15 13:03:19;;;;;;;0.00;0.00;;;19.00;45.10;;;;;;4993794;28;20272;-48